sensor_id;sensor_type;location;lat;lon;timestamp;pressure;altitude;pressure_sealevel;temperature
10869;BMP180;62667;48.698;8.762;2023-06-04T00:00:11;96029.00;;;15.00
10869;BMP180;62667;48.698;8.762;2023-06-04T00:02:38;96036.00;;;15.00
10869;BMP180;62667;48.698;8.762;2023-06-04T00:05:06;96028.00;;;15.00
10869;BMP180;62667;48.698;8.762;2023-06-04T00:07:33;96024.00;;;15.10
10869;BMP180;62667;48.698;8.762;2023-06-04T00:10:00;96026.00;;;15.00
10869;BMP180;62667;48.698;8.762;2023-06-04T00:12:27;96026.00;;;14.80
10869;BMP180;62667;48.698;8.762;2023-06-04T00:14:55;96028.00;;;14.60
10869;BMP180;62667;48.698;8.762;2023-06-04T00:17:23;96026.00;;;14.60
10869;BMP180;62667;48.698;8.762;2023-06-04T00:19:50;96017.00;;;14.50
10869;BMP180;62667;48.698;8.762;2023-06-04T00:22:17;96028.00;;;14.60
10869;BMP180;62667;48.698;8.762;2023-06-04T00:24:44;96021.00;;;14.50
10869;BMP180;62667;48.698;8.762;2023-06-04T00:27:11;96016.00;;;14.50
10869;BMP180;62667;48.698;8.762;2023-06-04T00:29:38;96020.00;;;14.50
10869;BMP180;62667;48.698;8.762;2023-06-04T00:32:06;96014.00;;;14.50
10869;BMP180;62667;48.698;8.762;2023-06-04T00:34:35;96026.00;;;14.40
10869;BMP180;62667;48.698;8.762;2023-06-04T00:37:02;96031.00;;;14.40
10869;BMP180;62667;48.698;8.762;2023-06-04T00:39:29;96029.00;;;14.50
10869;BMP180;62667;48.698;8.762;2023-06-04T00:41:56;96020.00;;;14.50
10869;BMP180;62667;48.698;8.762;2023-06-04T00:44:23;96033.00;;;14.40
10869;BMP180;62667;48.698;8.762;2023-06-04T00:46:51;96032.00;;;14.40
10869;BMP180;62667;48.698;8.762;2023-06-04T00:49:19;96037.00;;;14.40
10869;BMP180;62667;48.698;8.762;2023-06-04T00:51:48;96038.00;;;14.30
10869;BMP180;62667;48.698;8.762;2023-06-04T00:54:16;96034.00;;;14.20
10869;BMP180;62667;48.698;8.762;2023-06-04T00:56:43;96032.00;;;14.20
10869;BMP180;62667;48.698;8.762;2023-06-04T00:59:11;96034.00;;;14.10
10869;BMP180;62667;48.698;8.762;2023-06-04T01:01:47;96039.00;;;14.10
10869;BMP180;62667;48.698;8.762;2023-06-04T01:04:22;96035.00;;;14.10
10869;BMP180;62667;48.698;8.762;2023-06-04T01:06:56;96029.00;;;14.10
10869;BMP180;62667;48.698;8.762;2023-06-04T01:09:26;96031.00;;;14.00
10869;BMP180;62667;48.698;8.762;2023-06-04T01:11:53;96032.00;;;14.00
10869;BMP180;62667;48.698;8.762;2023-06-04T01:14:23;96034.00;;;13.80
10869;BMP180;62667;48.698;8.762;2023-06-04T01:16:56;96033.00;;;13.80
10869;BMP180;62667;48.698;8.762;2023-06-04T01:22:36;96033.00;;;13.70
10869;BMP180;62667;48.698;8.762;2023-06-04T01:25:09;96030.00;;;13.80
10869;BMP180;62667;48.698;8.762;2023-06-04T01:27:47;96037.00;;;13.90
10869;BMP180;62667;48.698;8.762;2023-06-04T01:30:16;96037.00;;;13.90
10869;BMP180;62667;48.698;8.762;2023-06-04T01:32:45;96027.00;;;13.80
10869;BMP180;62667;48.698;8.762;2023-06-04T01:35:13;96039.00;;;13.70
10869;BMP180;62667;48.698;8.762;2023-06-04T01:37:42;96030.00;;;13.70
10869;BMP180;62667;48.698;8.762;2023-06-04T01:40:10;96036.00;;;13.60
10869;BMP180;62667;48.698;8.762;2023-06-04T01:42:38;96035.00;;;13.50
10869;BMP180;62667;48.698;8.762;2023-06-04T01:45:06;96035.00;;;13.50
10869;BMP180;62667;48.698;8.762;2023-06-04T01:47:33;96040.00;;;13.50
10869;BMP180;62667;48.698;8.762;2023-06-04T01:50:00;96030.00;;;13.50
10869;BMP180;62667;48.698;8.762;2023-06-04T01:52:27;96036.00;;;13.50
10869;BMP180;62667;48.698;8.762;2023-06-04T01:54:56;96030.00;;;13.40
10869;BMP180;62667;48.698;8.762;2023-06-04T01:57:24;96027.00;;;13.30
10869;BMP180;62667;48.698;8.762;2023-06-04T01:59:51;96032.00;;;13.30
10869;BMP180;62667;48.698;8.762;2023-06-04T02:02:18;96035.00;;;13.20
10869;BMP180;62667;48.698;8.762;2023-06-04T02:04:45;96027.00;;;13.10
10869;BMP180;62667;48.698;8.762;2023-06-04T02:07:13;96031.00;;;13.10
10869;BMP180;62667;48.698;8.762;2023-06-04T02:09:43;96029.00;;;13.20
10869;BMP180;62667;48.698;8.762;2023-06-04T02:12:12;96028.00;;;13.20
10869;BMP180;62667;48.698;8.762;2023-06-04T02:14:39;96040.00;;;13.20
10869;BMP180;62667;48.698;8.762;2023-06-04T02:17:08;96033.00;;;13.20
10869;BMP180;62667;48.698;8.762;2023-06-04T02:19:38;96034.00;;;13.20
10869;BMP180;62667;48.698;8.762;2023-06-04T02:22:11;96030.00;;;13.10
10869;BMP180;62667;48.698;8.762;2023-06-04T02:24:38;96034.00;;;13.10
10869;BMP180;62667;48.698;8.762;2023-06-04T02:27:08;96028.00;;;13.10
10869;BMP180;62667;48.698;8.762;2023-06-04T02:29:37;96032.00;;;13.00
10869;BMP180;62667;48.698;8.762;2023-06-04T02:32:05;96026.00;;;13.10
10869;BMP180;62667;48.698;8.762;2023-06-04T02:34:32;96027.00;;;12.90
10869;BMP180;62667;48.698;8.762;2023-06-04T02:37:01;96030.00;;;12.70
10869;BMP180;62667;48.698;8.762;2023-06-04T02:39:28;96029.00;;;12.70
10869;BMP180;62667;48.698;8.762;2023-06-04T02:41:55;96041.00;;;12.80
10869;BMP180;62667;48.698;8.762;2023-06-04T02:44:22;96043.00;;;12.90
10869;BMP180;62667;48.698;8.762;2023-06-04T02:46:51;96031.00;;;12.80
10869;BMP180;62667;48.698;8.762;2023-06-04T02:49:18;96033.00;;;12.70
10869;BMP180;62667;48.698;8.762;2023-06-04T02:51:46;96032.00;;;12.70
10869;BMP180;62667;48.698;8.762;2023-06-04T02:54:13;96040.00;;;12.60
10869;BMP180;62667;48.698;8.762;2023-06-04T02:56:40;96040.00;;;12.40
10869;BMP180;62667;48.698;8.762;2023-06-04T02:59:09;96035.00;;;12.40
10869;BMP180;62667;48.698;8.762;2023-06-04T03:01:36;96039.00;;;12.40
10869;BMP180;62667;48.698;8.762;2023-06-04T03:04:05;96035.00;;;12.30
10869;BMP180;62667;48.698;8.762;2023-06-04T03:06:36;96043.00;;;12.30
10869;BMP180;62667;48.698;8.762;2023-06-04T03:09:05;96040.00;;;12.30
10869;BMP180;62667;48.698;8.762;2023-06-04T03:11:32;96043.00;;;12.40
10869;BMP180;62667;48.698;8.762;2023-06-04T03:13:59;96045.00;;;12.40
10869;BMP180;62667;48.698;8.762;2023-06-04T03:16:26;96035.00;;;12.40
10869;BMP180;62667;48.698;8.762;2023-06-04T03:18:53;96043.00;;;12.40
10869;BMP180;62667;48.698;8.762;2023-06-04T03:21:22;96038.00;;;12.30
10869;BMP180;62667;48.698;8.762;2023-06-04T03:23:50;96028.00;;;12.30
10869;BMP180;62667;48.698;8.762;2023-06-04T03:26:18;96047.00;;;12.30
10869;BMP180;62667;48.698;8.762;2023-06-04T03:28:45;96049.00;;;12.30
10869;BMP180;62667;48.698;8.762;2023-06-04T03:31:12;96045.00;;;12.30
10869;BMP180;62667;48.698;8.762;2023-06-04T03:33:39;96047.00;;;12.20
10869;BMP180;62667;48.698;8.762;2023-06-04T03:36:06;96049.00;;;12.00
10869;BMP180;62667;48.698;8.762;2023-06-04T03:38:34;96048.00;;;12.00
10869;BMP180;62667;48.698;8.762;2023-06-04T03:41:01;96054.00;;;12.00
10869;BMP180;62667;48.698;8.762;2023-06-04T03:43:28;96055.00;;;12.00
10869;BMP180;62667;48.698;8.762;2023-06-04T03:45:55;96060.00;;;12.10
10869;BMP180;62667;48.698;8.762;2023-06-04T03:48:22;96059.00;;;12.10
10869;BMP180;62667;48.698;8.762;2023-06-04T03:50:49;96054.00;;;12.20
10869;BMP180;62667;48.698;8.762;2023-06-04T03:53:16;96067.00;;;12.30
10869;BMP180;62667;48.698;8.762;2023-06-04T03:55:45;96062.00;;;12.20
10869;BMP180;62667;48.698;8.762;2023-06-04T03:58:12;96067.00;;;12.30
10869;BMP180;62667;48.698;8.762;2023-06-04T04:00:40;96060.00;;;12.30
10869;BMP180;62667;48.698;8.762;2023-06-04T04:03:07;96059.00;;;12.20
10869;BMP180;62667;48.698;8.762;2023-06-04T04:05:35;96066.00;;;12.20
10869;BMP180;62667;48.698;8.762;2023-06-04T04:08:03;96062.00;;;12.10
10869;BMP180;62667;48.698;8.762;2023-06-04T04:10:32;96060.00;;;12.20
10869;BMP180;62667;48.698;8.762;2023-06-04T04:13:00;96071.00;;;12.20
10869;BMP180;62667;48.698;8.762;2023-06-04T04:15:27;96065.00;;;12.30
10869;BMP180;62667;48.698;8.762;2023-06-04T04:17:55;96060.00;;;12.30
10869;BMP180;62667;48.698;8.762;2023-06-04T04:20:22;96073.00;;;12.20
10869;BMP180;62667;48.698;8.762;2023-06-04T04:22:49;96072.00;;;12.30
10869;BMP180;62667;48.698;8.762;2023-06-04T04:25:16;96066.00;;;12.30
10869;BMP180;62667;48.698;8.762;2023-06-04T04:27:43;96074.00;;;12.30
10869;BMP180;62667;48.698;8.762;2023-06-04T04:30:13;96067.00;;;12.40
10869;BMP180;62667;48.698;8.762;2023-06-04T04:32:41;96070.00;;;12.40
10869;BMP180;62667;48.698;8.762;2023-06-04T04:35:14;96070.00;;;12.50
10869;BMP180;62667;48.698;8.762;2023-06-04T04:37:44;96076.00;;;12.30
10869;BMP180;62667;48.698;8.762;2023-06-04T04:40:12;96082.00;;;12.30
10869;BMP180;62667;48.698;8.762;2023-06-04T04:42:39;96086.00;;;12.00
10869;BMP180;62667;48.698;8.762;2023-06-04T04:45:09;96078.00;;;12.20
10869;BMP180;62667;48.698;8.762;2023-06-04T04:47:37;96085.00;;;12.30
10869;BMP180;62667;48.698;8.762;2023-06-04T04:50:06;96082.00;;;12.40
10869;BMP180;62667;48.698;8.762;2023-06-04T04:52:33;96075.00;;;12.60
10869;BMP180;62667;48.698;8.762;2023-06-04T04:55:00;96066.00;;;12.70
10869;BMP180;62667;48.698;8.762;2023-06-04T04:57:28;96074.00;;;12.70
10869;BMP180;62667;48.698;8.762;2023-06-04T04:59:56;96078.00;;;12.80
10869;BMP180;62667;48.698;8.762;2023-06-04T05:02:23;96079.00;;;12.80
10869;BMP180;62667;48.698;8.762;2023-06-04T05:04:51;96078.00;;;12.80
10869;BMP180;62667;48.698;8.762;2023-06-04T05:07:18;96073.00;;;12.80
10869;BMP180;62667;48.698;8.762;2023-06-04T05:09:47;96082.00;;;12.90
10869;BMP180;62667;48.698;8.762;2023-06-04T05:12:14;96078.00;;;13.00
10869;BMP180;62667;48.698;8.762;2023-06-04T05:14:41;96085.00;;;13.10
10869;BMP180;62667;48.698;8.762;2023-06-04T05:17:08;96094.00;;;13.20
10869;BMP180;62667;48.698;8.762;2023-06-04T05:19:37;96090.00;;;13.10
10869;BMP180;62667;48.698;8.762;2023-06-04T05:22:05;96087.00;;;13.20
10869;BMP180;62667;48.698;8.762;2023-06-04T05:24:32;96092.00;;;13.40
10869;BMP180;62667;48.698;8.762;2023-06-04T05:26:59;96092.00;;;13.50
10869;BMP180;62667;48.698;8.762;2023-06-04T05:29:29;96095.00;;;13.40
10869;BMP180;62667;48.698;8.762;2023-06-04T05:31:56;96100.00;;;13.40
10869;BMP180;62667;48.698;8.762;2023-06-04T05:34:23;96109.00;;;13.50
10869;BMP180;62667;48.698;8.762;2023-06-04T05:36:52;96105.00;;;13.50
10869;BMP180;62667;48.698;8.762;2023-06-04T05:39:20;96112.00;;;13.70
10869;BMP180;62667;48.698;8.762;2023-06-04T05:41:49;96103.00;;;13.70
10869;BMP180;62667;48.698;8.762;2023-06-04T05:44:16;96103.00;;;13.80
10869;BMP180;62667;48.698;8.762;2023-06-04T05:46:43;96115.00;;;13.90
10869;BMP180;62667;48.698;8.762;2023-06-04T05:49:10;96114.00;;;14.10
10869;BMP180;62667;48.698;8.762;2023-06-04T05:51:38;96111.00;;;14.10
10869;BMP180;62667;48.698;8.762;2023-06-04T05:54:05;96113.00;;;14.30
10869;BMP180;62667;48.698;8.762;2023-06-04T05:56:34;96115.00;;;14.50
10869;BMP180;62667;48.698;8.762;2023-06-04T05:59:01;96120.00;;;14.70
10869;BMP180;62667;48.698;8.762;2023-06-04T06:01:28;96115.00;;;14.90
10869;BMP180;62667;48.698;8.762;2023-06-04T06:03:55;96108.00;;;14.90
10869;BMP180;62667;48.698;8.762;2023-06-04T06:06:22;96119.00;;;15.00
10869;BMP180;62667;48.698;8.762;2023-06-04T06:08:49;96118.00;;;15.10
10869;BMP180;62667;48.698;8.762;2023-06-04T06:11:16;96117.00;;;15.10
10869;BMP180;62667;48.698;8.762;2023-06-04T06:13:45;96117.00;;;15.20
10869;BMP180;62667;48.698;8.762;2023-06-04T06:16:12;96114.00;;;15.20
10869;BMP180;62667;48.698;8.762;2023-06-04T06:18:39;96118.00;;;15.20
10869;BMP180;62667;48.698;8.762;2023-06-04T06:21:06;96123.00;;;15.40
10869;BMP180;62667;48.698;8.762;2023-06-04T06:23:33;96115.00;;;15.60
10869;BMP180;62667;48.698;8.762;2023-06-04T06:26:00;96113.00;;;15.50
10869;BMP180;62667;48.698;8.762;2023-06-04T06:28:29;96119.00;;;15.70
10869;BMP180;62667;48.698;8.762;2023-06-04T06:30:57;96124.00;;;15.70
10869;BMP180;62667;48.698;8.762;2023-06-04T06:33:24;96131.00;;;15.80
10869;BMP180;62667;48.698;8.762;2023-06-04T06:35:51;96134.00;;;15.50
10869;BMP180;62667;48.698;8.762;2023-06-04T06:38:18;96142.00;;;15.70
10869;BMP180;62667;48.698;8.762;2023-06-04T06:40:45;96132.00;;;15.50
10869;BMP180;62667;48.698;8.762;2023-06-04T06:43:13;96130.00;;;15.50
10869;BMP180;62667;48.698;8.762;2023-06-04T06:45:41;96132.00;;;15.50
10869;BMP180;62667;48.698;8.762;2023-06-04T06:48:09;96137.00;;;15.80
10869;BMP180;62667;48.698;8.762;2023-06-04T06:50:36;96123.00;;;15.90
10869;BMP180;62667;48.698;8.762;2023-06-04T06:53:03;96128.00;;;16.20
10869;BMP180;62667;48.698;8.762;2023-06-04T06:55:33;96124.00;;;16.20
10869;BMP180;62667;48.698;8.762;2023-06-04T06:58:00;96127.00;;;16.50
10869;BMP180;62667;48.698;8.762;2023-06-04T07:00:28;96123.00;;;16.40
10869;BMP180;62667;48.698;8.762;2023-06-04T07:02:55;96119.00;;;16.30
10869;BMP180;62667;48.698;8.762;2023-06-04T07:05:24;96127.00;;;16.40
10869;BMP180;62667;48.698;8.762;2023-06-04T07:07:51;96123.00;;;16.80
10869;BMP180;62667;48.698;8.762;2023-06-04T07:10:18;96129.00;;;16.90
10869;BMP180;62667;48.698;8.762;2023-06-04T07:12:45;96124.00;;;17.10
10869;BMP180;62667;48.698;8.762;2023-06-04T07:15:12;96124.00;;;17.30
10869;BMP180;62667;48.698;8.762;2023-06-04T07:17:40;96120.00;;;17.40
10869;BMP180;62667;48.698;8.762;2023-06-04T07:20:08;96129.00;;;17.50
10869;BMP180;62667;48.698;8.762;2023-06-04T07:22:37;96129.00;;;17.70
10869;BMP180;62667;48.698;8.762;2023-06-04T07:25:05;96130.00;;;17.80
10869;BMP180;62667;48.698;8.762;2023-06-04T07:27:34;96124.00;;;17.90
10869;BMP180;62667;48.698;8.762;2023-06-04T07:30:01;96126.00;;;17.70
10869;BMP180;62667;48.698;8.762;2023-06-04T07:32:28;96118.00;;;18.00
10869;BMP180;62667;48.698;8.762;2023-06-04T07:34:55;96115.00;;;18.20
10869;BMP180;62667;48.698;8.762;2023-06-04T07:37:22;96115.00;;;18.20
10869;BMP180;62667;48.698;8.762;2023-06-04T07:39:51;96121.00;;;18.10
10869;BMP180;62667;48.698;8.762;2023-06-04T07:42:18;96120.00;;;18.20
10869;BMP180;62667;48.698;8.762;2023-06-04T07:44:45;96122.00;;;18.40
10869;BMP180;62667;48.698;8.762;2023-06-04T07:47:12;96123.00;;;18.40
10869;BMP180;62667;48.698;8.762;2023-06-04T07:49:39;96117.00;;;18.60
10869;BMP180;62667;48.698;8.762;2023-06-04T07:52:06;96126.00;;;18.90
10869;BMP180;62667;48.698;8.762;2023-06-04T07:54:34;96126.00;;;19.00
10869;BMP180;62667;48.698;8.762;2023-06-04T07:57:02;96113.00;;;19.00
10869;BMP180;62667;48.698;8.762;2023-06-04T07:59:30;96113.00;;;19.00
10869;BMP180;62667;48.698;8.762;2023-06-04T08:01:57;96112.00;;;19.10
10869;BMP180;62667;48.698;8.762;2023-06-04T08:04:24;96121.00;;;19.20
10869;BMP180;62667;48.698;8.762;2023-06-04T08:06:51;96122.00;;;19.50
10869;BMP180;62667;48.698;8.762;2023-06-04T08:09:19;96115.00;;;19.50
10869;BMP180;62667;48.698;8.762;2023-06-04T08:11:46;96116.00;;;19.50
10869;BMP180;62667;48.698;8.762;2023-06-04T08:14:14;96105.00;;;19.70
10869;BMP180;62667;48.698;8.762;2023-06-04T08:16:41;96118.00;;;19.60
10869;BMP180;62667;48.698;8.762;2023-06-04T08:19:08;96113.00;;;19.60
10869;BMP180;62667;48.698;8.762;2023-06-04T08:21:35;96118.00;;;19.60
10869;BMP180;62667;48.698;8.762;2023-06-04T08:24:03;96113.00;;;19.90
10869;BMP180;62667;48.698;8.762;2023-06-04T08:26:30;96115.00;;;19.90
10869;BMP180;62667;48.698;8.762;2023-06-04T08:28:58;96116.00;;;19.90
10869;BMP180;62667;48.698;8.762;2023-06-04T08:31:26;96117.00;;;19.90
10869;BMP180;62667;48.698;8.762;2023-06-04T08:33:53;96115.00;;;20.00
10869;BMP180;62667;48.698;8.762;2023-06-04T08:36:20;96111.00;;;20.30
10869;BMP180;62667;48.698;8.762;2023-06-04T08:38:47;96112.00;;;20.50
10869;BMP180;62667;48.698;8.762;2023-06-04T08:41:24;96115.00;;;20.60
10869;BMP180;62667;48.698;8.762;2023-06-04T08:43:56;96113.00;;;20.70
10869;BMP180;62667;48.698;8.762;2023-06-04T08:46:24;96122.00;;;20.90
10869;BMP180;62667;48.698;8.762;2023-06-04T08:48:56;96130.00;;;20.80
10869;BMP180;62667;48.698;8.762;2023-06-04T08:51:26;96125.00;;;21.00
10869;BMP180;62667;48.698;8.762;2023-06-04T08:53:53;96129.00;;;20.90
10869;BMP180;62667;48.698;8.762;2023-06-04T08:56:23;96133.00;;;21.10
10869;BMP180;62667;48.698;8.762;2023-06-04T08:58:51;96137.00;;;20.80
10869;BMP180;62667;48.698;8.762;2023-06-04T09:01:18;96141.00;;;21.10
10869;BMP180;62667;48.698;8.762;2023-06-04T09:03:45;96137.00;;;21.20
10869;BMP180;62667;48.698;8.762;2023-06-04T09:06:14;96145.00;;;21.30
10869;BMP180;62667;48.698;8.762;2023-06-04T09:08:44;96140.00;;;21.20
10869;BMP180;62667;48.698;8.762;2023-06-04T09:11:14;96139.00;;;21.30
10869;BMP180;62667;48.698;8.762;2023-06-04T09:13:45;96146.00;;;21.50
10869;BMP180;62667;48.698;8.762;2023-06-04T09:16:13;96155.00;;;21.50
10869;BMP180;62667;48.698;8.762;2023-06-04T09:18:41;96143.00;;;21.60
10869;BMP180;62667;48.698;8.762;2023-06-04T09:21:09;96148.00;;;21.70
10869;BMP180;62667;48.698;8.762;2023-06-04T09:23:44;96152.00;;;21.60
10869;BMP180;62667;48.698;8.762;2023-06-04T09:26:11;96153.00;;;22.00
10869;BMP180;62667;48.698;8.762;2023-06-04T09:28:40;96156.00;;;22.00
10869;BMP180;62667;48.698;8.762;2023-06-04T09:31:09;96153.00;;;22.30
10869;BMP180;62667;48.698;8.762;2023-06-04T09:33:43;96153.00;;;22.40
10869;BMP180;62667;48.698;8.762;2023-06-04T09:36:11;96150.00;;;22.10
10869;BMP180;62667;48.698;8.762;2023-06-04T09:38:40;96156.00;;;22.30
10869;BMP180;62667;48.698;8.762;2023-06-04T09:41:12;96157.00;;;22.20
10869;BMP180;62667;48.698;8.762;2023-06-04T09:43:39;96151.00;;;22.10
10869;BMP180;62667;48.698;8.762;2023-06-04T09:46:11;96161.00;;;22.10
10869;BMP180;62667;48.698;8.762;2023-06-04T09:48:38;96153.00;;;21.90
10869;BMP180;62667;48.698;8.762;2023-06-04T09:51:08;96160.00;;;22.20
10869;BMP180;62667;48.698;8.762;2023-06-04T09:53:35;96157.00;;;22.60
10869;BMP180;62667;48.698;8.762;2023-06-04T09:56:05;96152.00;;;22.90
10869;BMP180;62667;48.698;8.762;2023-06-04T09:58:34;96155.00;;;22.80
10869;BMP180;62667;48.698;8.762;2023-06-04T10:01:03;96161.00;;;22.70
10869;BMP180;62667;48.698;8.762;2023-06-04T10:03:32;96154.00;;;22.90
10869;BMP180;62667;48.698;8.762;2023-06-04T10:06:04;96155.00;;;22.40
10869;BMP180;62667;48.698;8.762;2023-06-04T10:08:32;96153.00;;;22.50
10869;BMP180;62667;48.698;8.762;2023-06-04T10:11:02;96150.00;;;22.80
10869;BMP180;62667;48.698;8.762;2023-06-04T10:13:35;96150.00;;;22.90
10869;BMP180;62667;48.698;8.762;2023-06-04T10:16:06;96152.00;;;22.90
10869;BMP180;62667;48.698;8.762;2023-06-04T10:18:35;96148.00;;;23.20
10869;BMP180;62667;48.698;8.762;2023-06-04T10:21:03;96152.00;;;23.30
10869;BMP180;62667;48.698;8.762;2023-06-04T10:23:31;96147.00;;;23.40
10869;BMP180;62667;48.698;8.762;2023-06-04T10:25:58;96147.00;;;23.60
10869;BMP180;62667;48.698;8.762;2023-06-04T10:28:27;96144.00;;;23.50
10869;BMP180;62667;48.698;8.762;2023-06-04T10:30:55;96146.00;;;23.60
10869;BMP180;62667;48.698;8.762;2023-06-04T10:33:23;96144.00;;;23.20
10869;BMP180;62667;48.698;8.762;2023-06-04T10:35:53;96150.00;;;23.40
10869;BMP180;62667;48.698;8.762;2023-06-04T10:38:20;96146.00;;;23.20
10869;BMP180;62667;48.698;8.762;2023-06-04T10:40:48;96145.00;;;23.60
10869;BMP180;62667;48.698;8.762;2023-06-04T10:43:16;96146.00;;;23.70
10869;BMP180;62667;48.698;8.762;2023-06-04T10:45:45;96138.00;;;23.60
10869;BMP180;62667;48.698;8.762;2023-06-04T10:48:13;96146.00;;;23.90
10869;BMP180;62667;48.698;8.762;2023-06-04T10:50:51;96137.00;;;23.90
10869;BMP180;62667;48.698;8.762;2023-06-04T10:53:19;96135.00;;;23.80
10869;BMP180;62667;48.698;8.762;2023-06-04T10:55:47;96132.00;;;24.20
10869;BMP180;62667;48.698;8.762;2023-06-04T10:58:15;96135.00;;;24.10
10869;BMP180;62667;48.698;8.762;2023-06-04T11:00:46;96135.00;;;24.30
10869;BMP180;62667;48.698;8.762;2023-06-04T11:03:16;96137.00;;;24.40
10869;BMP180;62667;48.698;8.762;2023-06-04T11:05:45;96143.00;;;24.50
10869;BMP180;62667;48.698;8.762;2023-06-04T11:08:14;96140.00;;;24.60
10869;BMP180;62667;48.698;8.762;2023-06-04T11:10:43;96140.00;;;24.70
10869;BMP180;62667;48.698;8.762;2023-06-04T11:13:11;96135.00;;;24.70
10869;BMP180;62667;48.698;8.762;2023-06-04T11:15:40;96140.00;;;24.70
10869;BMP180;62667;48.698;8.762;2023-06-04T11:18:14;96133.00;;;24.90
10869;BMP180;62667;48.698;8.762;2023-06-04T11:20:43;96158.00;;;25.20
10869;BMP180;62667;48.698;8.762;2023-06-04T11:23:12;96134.00;;;25.30
10869;BMP180;62667;48.698;8.762;2023-06-04T11:25:40;96133.00;;;25.40
10869;BMP180;62667;48.698;8.762;2023-06-04T11:28:15;96128.00;;;25.60
10869;BMP180;62667;48.698;8.762;2023-06-04T11:30:42;96134.00;;;25.70
10869;BMP180;62667;48.698;8.762;2023-06-04T11:33:11;96129.00;;;25.70
10869;BMP180;62667;48.698;8.762;2023-06-04T11:35:42;96126.00;;;25.80
10869;BMP180;62667;48.698;8.762;2023-06-04T11:38:10;96127.00;;;25.80
10869;BMP180;62667;48.698;8.762;2023-06-04T11:40:38;96121.00;;;25.70
10869;BMP180;62667;48.698;8.762;2023-06-04T11:43:08;96126.00;;;25.80
10869;BMP180;62667;48.698;8.762;2023-06-04T11:45:36;96130.00;;;26.00
10869;BMP180;62667;48.698;8.762;2023-06-04T11:48:06;96124.00;;;26.10
10869;BMP180;62667;48.698;8.762;2023-06-04T11:50:39;96132.00;;;26.10
10869;BMP180;62667;48.698;8.762;2023-06-04T11:53:08;96131.00;;;26.20
10869;BMP180;62667;48.698;8.762;2023-06-04T11:55:36;96135.00;;;26.20
10869;BMP180;62667;48.698;8.762;2023-06-04T11:58:04;96126.00;;;26.60
10869;BMP180;62667;48.698;8.762;2023-06-04T12:00:32;96126.00;;;26.70
10869;BMP180;62667;48.698;8.762;2023-06-04T12:03:00;96113.00;;;27.00
10869;BMP180;62667;48.698;8.762;2023-06-04T12:05:30;96124.00;;;27.10
10869;BMP180;62667;48.698;8.762;2023-06-04T12:08:06;96120.00;;;27.30
10869;BMP180;62667;48.698;8.762;2023-06-04T12:10:39;96117.00;;;27.00
10869;BMP180;62667;48.698;8.762;2023-06-04T12:13:06;96108.00;;;27.30
10869;BMP180;62667;48.698;8.762;2023-06-04T12:15:34;96103.00;;;27.30
10869;BMP180;62667;48.698;8.762;2023-06-04T12:18:02;96105.00;;;27.80
10869;BMP180;62667;48.698;8.762;2023-06-04T12:20:35;96107.00;;;28.00
10869;BMP180;62667;48.698;8.762;2023-06-04T12:23:02;96135.00;;;28.10
10869;BMP180;62667;48.698;8.762;2023-06-04T12:25:32;96136.00;;;27.50
10869;BMP180;62667;48.698;8.762;2023-06-04T12:27:59;96120.00;;;26.60
10869;BMP180;62667;48.698;8.762;2023-06-04T12:30:37;96114.00;;;27.10
10869;BMP180;62667;48.698;8.762;2023-06-04T12:33:04;96113.00;;;27.70
10869;BMP180;62667;48.698;8.762;2023-06-04T12:35:33;96112.00;;;28.20
10869;BMP180;62667;48.698;8.762;2023-06-04T12:38:02;96110.00;;;28.60
10869;BMP180;62667;48.698;8.762;2023-06-04T12:40:30;96104.00;;;28.60
10869;BMP180;62667;48.698;8.762;2023-06-04T12:42:57;96136.00;;;28.50
10869;BMP180;62667;48.698;8.762;2023-06-04T12:45:25;96148.00;;;28.00
10869;BMP180;62667;48.698;8.762;2023-06-04T12:47:52;96118.00;;;27.60
10869;BMP180;62667;48.698;8.762;2023-06-04T12:50:19;96135.00;;;28.10
10869;BMP180;62667;48.698;8.762;2023-06-04T12:52:46;96118.00;;;28.50
10869;BMP180;62667;48.698;8.762;2023-06-04T12:55:13;96122.00;;;28.60
10869;BMP180;62667;48.698;8.762;2023-06-04T12:57:42;96115.00;;;28.00
10869;BMP180;62667;48.698;8.762;2023-06-04T13:00:11;96104.00;;;28.40
10869;BMP180;62667;48.698;8.762;2023-06-04T13:02:38;96112.00;;;28.70
10869;BMP180;62667;48.698;8.762;2023-06-04T13:05:06;96108.00;;;28.80
10869;BMP180;62667;48.698;8.762;2023-06-04T13:07:33;96110.00;;;28.60
10869;BMP180;62667;48.698;8.762;2023-06-04T13:10:00;96116.00;;;28.40
10869;BMP180;62667;48.698;8.762;2023-06-04T13:12:27;96121.00;;;28.50
10869;BMP180;62667;48.698;8.762;2023-06-04T13:14:56;96122.00;;;28.60
10869;BMP180;62667;48.698;8.762;2023-06-04T13:17:24;96118.00;;;28.60
10869;BMP180;62667;48.698;8.762;2023-06-04T13:19:51;96114.00;;;28.80
10869;BMP180;62667;48.698;8.762;2023-06-04T13:22:18;96114.00;;;29.10
10869;BMP180;62667;48.698;8.762;2023-06-04T13:24:45;96111.00;;;28.80
10869;BMP180;62667;48.698;8.762;2023-06-04T13:27:12;96113.00;;;29.00
10869;BMP180;62667;48.698;8.762;2023-06-04T13:29:39;96109.00;;;29.20
10869;BMP180;62667;48.698;8.762;2023-06-04T13:32:08;96100.00;;;29.30
10869;BMP180;62667;48.698;8.762;2023-06-04T13:34:36;96109.00;;;29.50
10869;BMP180;62667;48.698;8.762;2023-06-04T13:37:03;96104.00;;;29.60
10869;BMP180;62667;48.698;8.762;2023-06-04T13:39:31;96112.00;;;29.70
10869;BMP180;62667;48.698;8.762;2023-06-04T13:41:59;96105.00;;;29.40
10869;BMP180;62667;48.698;8.762;2023-06-04T13:44:26;96107.00;;;29.50
10869;BMP180;62667;48.698;8.762;2023-06-04T13:46:54;96116.00;;;29.60
10869;BMP180;62667;48.698;8.762;2023-06-04T13:49:22;96109.00;;;29.90
10869;BMP180;62667;48.698;8.762;2023-06-04T13:51:49;96105.00;;;30.20
10869;BMP180;62667;48.698;8.762;2023-06-04T13:54:16;96100.00;;;30.30
10869;BMP180;62667;48.698;8.762;2023-06-04T13:56:44;96096.00;;;30.40
10869;BMP180;62667;48.698;8.762;2023-06-04T13:59:11;96098.00;;;29.90
10869;BMP180;62667;48.698;8.762;2023-06-04T14:01:38;96108.00;;;29.90
10869;BMP180;62667;48.698;8.762;2023-06-04T14:04:05;96099.00;;;29.70
10869;BMP180;62667;48.698;8.762;2023-06-04T14:06:35;96110.00;;;29.20
10869;BMP180;62667;48.698;8.762;2023-06-04T14:09:03;96100.00;;;29.30
10869;BMP180;62667;48.698;8.762;2023-06-04T14:11:32;96098.00;;;29.70
10869;BMP180;62667;48.698;8.762;2023-06-04T14:14:00;96096.00;;;30.10
10869;BMP180;62667;48.698;8.762;2023-06-04T14:16:27;96072.00;;;30.30